sensor_id;sensor_type;location;lat;lon;timestamp;temperature;humidity
35463;DHT22;21578;47.892;9.970;2023-07-29T00:04:07;16.90;96.60
35463;DHT22;21578;47.892;9.970;2023-07-29T00:08:56;16.80;96.60
35463;DHT22;21578;47.892;9.970;2023-07-29T00:13:43;16.80;96.60
35463;DHT22;21578;47.892;9.970;2023-07-29T00:18:30;16.70;96.60
35463;DHT22;21578;47.892;9.970;2023-07-29T00:23:17;16.70;96.60
35463;DHT22;21578;47.892;9.970;2023-07-29T00:28:07;16.70;96.60
35463;DHT22;21578;47.892;9.970;2023-07-29T00:32:54;16.60;96.60
35463;DHT22;21578;47.892;9.970;2023-07-29T00:37:41;16.60;96.60
35463;DHT22;21578;47.892;9.970;2023-07-29T00:42:28;16.60;96.60
35463;DHT22;21578;47.892;9.970;2023-07-29T00:47:16;16.70;96.60
35463;DHT22;21578;47.892;9.970;2023-07-29T00:52:05;16.80;96.60
35463;DHT22;21578;47.892;9.970;2023-07-29T00:56:51;16.80;96.60
35463;DHT22;21578;47.892;9.970;2023-07-29T01:01:39;16.80;96.60
35463;DHT22;21578;47.892;9.970;2023-07-29T01:06:34;16.90;96.60
35463;DHT22;21578;47.892;9.970;2023-07-29T01:11:35;16.90;96.60
35463;DHT22;21578;47.892;9.970;2023-07-29T01:16:30;16.80;96.60
35463;DHT22;21578;47.892;9.970;2023-07-29T01:21:18;16.80;96.60
35463;DHT22;21578;47.892;9.970;2023-07-29T01:26:07;16.80;96.60
35463;DHT22;21578;47.892;9.970;2023-07-29T01:31:10;16.80;96.60
35463;DHT22;21578;47.892;9.970;2023-07-29T01:36:02;16.80;96.60
35463;DHT22;21578;47.892;9.970;2023-07-29T01:40:50;16.80;96.60
35463;DHT22;21578;47.892;9.970;2023-07-29T01:45:40;16.70;96.60
35463;DHT22;21578;47.892;9.970;2023-07-29T01:50:27;16.70;96.60
35463;DHT22;21578;47.892;9.970;2023-07-29T01:55:14;16.70;96.60
35463;DHT22;21578;47.892;9.970;2023-07-29T02:00:01;16.60;96.60
35463;DHT22;21578;47.892;9.970;2023-07-29T02:04:50;16.60;96.60
35463;DHT22;21578;47.892;9.970;2023-07-29T02:09:38;16.80;96.60
35463;DHT22;21578;47.892;9.970;2023-07-29T02:14:25;16.70;96.60
35463;DHT22;21578;47.892;9.970;2023-07-29T02:19:11;16.70;96.60
35463;DHT22;21578;47.892;9.970;2023-07-29T02:24:00;16.60;96.60
35463;DHT22;21578;47.892;9.970;2023-07-29T02:28:47;16.60;96.60
35463;DHT22;21578;47.892;9.970;2023-07-29T02:33:33;16.60;96.60
35463;DHT22;21578;47.892;9.970;2023-07-29T02:38:20;16.60;96.60
35463;DHT22;21578;47.892;9.970;2023-07-29T02:43:09;16.50;96.60
35463;DHT22;21578;47.892;9.970;2023-07-29T02:47:56;16.50;96.60
35463;DHT22;21578;47.892;9.970;2023-07-29T02:52:42;16.40;96.60
35463;DHT22;21578;47.892;9.970;2023-07-29T02:57:29;16.40;96.60
35463;DHT22;21578;47.892;9.970;2023-07-29T03:02:18;16.30;96.60
35463;DHT22;21578;47.892;9.970;2023-07-29T03:07:04;16.20;96.60
35463;DHT22;21578;47.892;9.970;2023-07-29T03:11:51;16.10;96.60
35463;DHT22;21578;47.892;9.970;2023-07-29T03:16:40;16.10;96.60
35463;DHT22;21578;47.892;9.970;2023-07-29T03:21:28;16.10;96.60
35463;DHT22;21578;47.892;9.970;2023-07-29T03:26:15;16.00;96.60
35463;DHT22;21578;47.892;9.970;2023-07-29T03:31:02;15.90;96.60
35463;DHT22;21578;47.892;9.970;2023-07-29T03:35:49;15.90;96.60
35463;DHT22;21578;47.892;9.970;2023-07-29T03:40:37;15.90;96.60
35463;DHT22;21578;47.892;9.970;2023-07-29T03:45:24;15.90;96.60
35463;DHT22;21578;47.892;9.970;2023-07-29T03:50:11;15.90;96.60
35463;DHT22;21578;47.892;9.970;2023-07-29T03:54:58;15.90;96.60
35463;DHT22;21578;47.892;9.970;2023-07-29T03:59:46;15.90;96.60
35463;DHT22;21578;47.892;9.970;2023-07-29T04:04:33;16.00;96.60
35463;DHT22;21578;47.892;9.970;2023-07-29T04:09:20;16.00;96.60
35463;DHT22;21578;47.892;9.970;2023-07-29T04:14:07;16.10;96.60
35463;DHT22;21578;47.892;9.970;2023-07-29T04:18:55;16.00;96.60
35463;DHT22;21578;47.892;9.970;2023-07-29T04:23:42;16.00;96.60
35463;DHT22;21578;47.892;9.970;2023-07-29T04:28:29;16.10;96.60
35463;DHT22;21578;47.892;9.970;2023-07-29T04:33:16;16.10;96.60
35463;DHT22;21578;47.892;9.970;2023-07-29T04:38:04;16.10;96.60
35463;DHT22;21578;47.892;9.970;2023-07-29T04:42:51;16.10;96.60
35463;DHT22;21578;47.892;9.970;2023-07-29T04:47:38;16.10;96.60
35463;DHT22;21578;47.892;9.970;2023-07-29T04:52:25;16.10;96.60
35463;DHT22;21578;47.892;9.970;2023-07-29T04:57:13;16.20;96.60
35463;DHT22;21578;47.892;9.970;2023-07-29T05:02:00;16.30;96.60
35463;DHT22;21578;47.892;9.970;2023-07-29T05:06:47;16.40;96.60
35463;DHT22;21578;47.892;9.970;2023-07-29T05:11:34;16.60;96.60
35463;DHT22;21578;47.892;9.970;2023-07-29T06:25:18;16.80;96.60
35463;DHT22;21578;47.892;9.970;2023-07-29T06:30:06;16.80;96.60
35463;DHT22;21578;47.892;9.970;2023-07-29T06:34:53;16.80;96.60
35463;DHT22;21578;47.892;9.970;2023-07-29T06:39:40;16.90;96.60
35463;DHT22;21578;47.892;9.970;2023-07-29T06:44:28;17.00;96.60
35463;DHT22;21578;47.892;9.970;2023-07-29T06:49:15;17.10;96.60
35463;DHT22;21578;47.892;9.970;2023-07-29T06:54:02;17.20;96.60
35463;DHT22;21578;47.892;9.970;2023-07-29T06:58:49;17.30;96.60
35463;DHT22;21578;47.892;9.970;2023-07-29T07:03:38;17.30;96.60
35463;DHT22;21578;47.892;9.970;2023-07-29T07:08:25;17.30;96.60
35463;DHT22;21578;47.892;9.970;2023-07-29T07:13:11;17.40;96.60
35463;DHT22;21578;47.892;9.970;2023-07-29T07:17:58;17.50;96.60
35463;DHT22;21578;47.892;9.970;2023-07-29T07:22:47;17.60;96.60
35463;DHT22;21578;47.892;9.970;2023-07-29T07:27:34;17.70;96.60
35463;DHT22;21578;47.892;9.970;2023-07-29T07:32:21;17.90;96.60
35463;DHT22;21578;47.892;9.970;2023-07-29T07:37:11;18.10;96.60
35463;DHT22;21578;47.892;9.970;2023-07-29T07:41:59;18.20;96.60
35463;DHT22;21578;47.892;9.970;2023-07-29T07:46:46;18.50;96.60
35463;DHT22;21578;47.892;9.970;2023-07-29T07:51:33;18.80;96.60
35463;DHT22;21578;47.892;9.970;2023-07-29T07:56:20;18.90;96.60
35463;DHT22;21578;47.892;9.970;2023-07-29T08:01:09;19.00;96.60
35463;DHT22;21578;47.892;9.970;2023-07-29T08:05:56;19.10;96.60
35463;DHT22;21578;47.892;9.970;2023-07-29T08:10:52;19.30;96.60
35463;DHT22;21578;47.892;9.970;2023-07-29T08:15:39;19.40;96.60
35463;DHT22;21578;47.892;9.970;2023-07-29T08:20:27;19.60;96.60
35463;DHT22;21578;47.892;9.970;2023-07-29T08:25:15;20.00;96.60
35463;DHT22;21578;47.892;9.970;2023-07-29T08:30:02;20.20;96.60
35463;DHT22;21578;47.892;9.970;2023-07-29T08:34:48;20.30;96.60
35463;DHT22;21578;47.892;9.970;2023-07-29T08:39:37;20.50;96.60
35463;DHT22;21578;47.892;9.970;2023-07-29T08:44:26;20.50;96.60
35463;DHT22;21578;47.892;9.970;2023-07-29T08:49:14;20.70;96.60
35463;DHT22;21578;47.892;9.970;2023-07-29T08:54:04;20.70;96.60
35463;DHT22;21578;47.892;9.970;2023-07-29T08:58:53;20.90;96.60
35463;DHT22;21578;47.892;9.970;2023-07-29T09:03:41;21.00;96.60
35463;DHT22;21578;47.892;9.970;2023-07-29T09:08:28;21.10;96.60
35463;DHT22;21578;47.892;9.970;2023-07-29T09:13:15;21.30;96.60
35463;DHT22;21578;47.892;9.970;2023-07-29T09:18:11;21.40;96.60
35463;DHT22;21578;47.892;9.970;2023-07-29T09:22:58;21.70;96.60
35463;DHT22;21578;47.892;9.970;2023-07-29T09:27:45;21.80;96.60
35463;DHT22;21578;47.892;9.970;2023-07-29T09:32:32;22.00;96.60
35463;DHT22;21578;47.892;9.970;2023-07-29T09:37:22;22.20;96.60
35463;DHT22;21578;47.892;9.970;2023-07-29T09:42:11;22.20;96.60
35463;DHT22;21578;47.892;9.970;2023-07-29T09:46:58;22.30;96.60
35463;DHT22;21578;47.892;9.970;2023-07-29T09:51:45;22.40;96.60
35463;DHT22;21578;47.892;9.970;2023-07-29T09:56:39;22.40;96.10
35463;DHT22;21578;47.892;9.970;2023-07-29T10:01:27;22.50;95.10
35463;DHT22;21578;47.892;9.970;2023-07-29T10:06:15;22.60;95.40
35463;DHT22;21578;47.892;9.970;2023-07-29T10:11:02;22.60;94.20
35463;DHT22;21578;47.892;9.970;2023-07-29T10:15:51;22.60;94.70
35463;DHT22;21578;47.892;9.970;2023-07-29T10:20:39;22.80;93.10
35463;DHT22;21578;47.892;9.970;2023-07-29T10:25:38;22.90;94.60
35463;DHT22;21578;47.892;9.970;2023-07-29T10:30:28;22.90;92.30
35463;DHT22;21578;47.892;9.970;2023-07-29T10:35:16;22.80;92.70
35463;DHT22;21578;47.892;9.970;2023-07-29T10:40:07;22.90;92.40
35463;DHT22;21578;47.892;9.970;2023-07-29T10:44:54;23.20;93.80
35463;DHT22;21578;47.892;9.970;2023-07-29T10:49:41;23.60;91.20
35463;DHT22;21578;47.892;9.970;2023-07-29T10:54:29;23.60;90.70
35463;DHT22;21578;47.892;9.970;2023-07-29T10:59:31;23.70;90.80
35463;DHT22;21578;47.892;9.970;2023-07-29T11:04:23;23.80;89.90
35463;DHT22;21578;47.892;9.970;2023-07-29T11:14:28;23.70;89.20
35463;DHT22;21578;47.892;9.970;2023-07-29T11:19:19;23.70;89.20
35463;DHT22;21578;47.892;9.970;2023-07-29T11:24:09;23.80;88.10
35463;DHT22;21578;47.892;9.970;2023-07-29T11:28:56;24.10;88.90
35463;DHT22;21578;47.892;9.970;2023-07-29T11:33:45;24.30;88.10
35463;DHT22;21578;47.892;9.970;2023-07-29T11:38:32;24.30;84.30
35463;DHT22;21578;47.892;9.970;2023-07-29T11:43:22;24.50;87.20
35463;DHT22;21578;47.892;9.970;2023-07-29T11:48:10;24.90;83.80
35463;DHT22;21578;47.892;9.970;2023-07-29T15:43:15;20.70;96.60
35463;DHT22;21578;47.892;9.970;2023-07-29T15:48:02;20.50;96.60
35463;DHT22;21578;47.892;9.970;2023-07-29T15:52:49;20.50;96.60
35463;DHT22;21578;47.892;9.970;2023-07-29T15:57:36;20.40;96.60
35463;DHT22;21578;47.892;9.970;2023-07-29T16:02:25;20.50;96.60
35463;DHT22;21578;47.892;9.970;2023-07-29T16:07:12;20.50;96.60
35463;DHT22;21578;47.892;9.970;2023-07-29T16:11:59;20.30;96.60
35463;DHT22;21578;47.892;9.970;2023-07-29T16:16:47;20.10;96.60
35463;DHT22;21578;47.892;9.970;2023-07-29T16:21:36;20.10;96.60
35463;DHT22;21578;47.892;9.970;2023-07-29T16:26:23;20.00;96.60
35463;DHT22;21578;47.892;9.970;2023-07-29T16:31:10;20.00;96.60
35463;DHT22;21578;47.892;9.970;2023-07-29T16:35:56;20.00;96.60
35463;DHT22;21578;47.892;9.970;2023-07-29T16:40:45;19.90;96.60
35463;DHT22;21578;47.892;9.970;2023-07-29T16:45:32;19.80;96.60
35463;DHT22;21578;47.892;9.970;2023-07-29T16:50:19;19.70;96.60
35463;DHT22;21578;47.892;9.970;2023-07-29T16:55:06;19.60;96.60
35463;DHT22;21578;47.892;9.970;2023-07-29T16:59:55;19.60;96.60
35463;DHT22;21578;47.892;9.970;2023-07-29T17:04:42;19.60;96.60
35463;DHT22;21578;47.892;9.970;2023-07-29T17:09:29;19.60;96.60
35463;DHT22;21578;47.892;9.970;2023-07-29T17:14:16;19.50;96.60
35463;DHT22;21578;47.892;9.970;2023-07-29T17:19:05;19.50;96.60
35463;DHT22;21578;47.892;9.970;2023-07-29T17:23:52;19.50;96.60
35463;DHT22;21578;47.892;9.970;2023-07-29T17:28:39;19.50;96.60
35463;DHT22;21578;47.892;9.970;2023-07-29T17:33:26;19.40;96.60
35463;DHT22;21578;47.892;9.970;2023-07-29T17:38:15;19.40;96.60
35463;DHT22;21578;47.892;9.970;2023-07-29T17:43:02;19.40;96.60
35463;DHT22;21578;47.892;9.970;2023-07-29T17:47:49;19.30;96.60
35463;DHT22;21578;47.892;9.970;2023-07-29T17:52:36;19.30;96.60
35463;DHT22;21578;47.892;9.970;2023-07-29T17:57:24;19.30;96.60
35463;DHT22;21578;47.892;9.970;2023-07-29T18:02:12;19.20;96.60
35463;DHT22;21578;47.892;9.970;2023-07-29T18:06:59;19.20;96.60
35463;DHT22;21578;47.892;9.970;2023-07-29T18:11:46;19.10;96.60
35463;DHT22;21578;47.892;9.970;2023-07-29T18:16:34;19.00;96.60
35463;DHT22;21578;47.892;9.970;2023-07-29T18:21:23;19.10;96.60
35463;DHT22;21578;47.892;9.970;2023-07-29T18:26:10;19.00;96.60
35463;DHT22;21578;47.892;9.970;2023-07-29T18:30:57;18.90;96.60
35463;DHT22;21578;47.892;9.970;2023-07-29T18:35:45;18.90;96.60
35463;DHT22;21578;47.892;9.970;2023-07-29T18:40:32;18.80;96.60
35463;DHT22;21578;47.892;9.970;2023-07-29T18:45:19;18.70;96.60
35463;DHT22;21578;47.892;9.970;2023-07-29T18:50:07;18.70;96.60
35463;DHT22;21578;47.892;9.970;2023-07-29T18:54:55;18.70;96.60
35463;DHT22;21578;47.892;9.970;2023-07-29T18:59:43;18.70;96.60
35463;DHT22;21578;47.892;9.970;2023-07-29T19:04:30;18.60;96.60
35463;DHT22;21578;47.892;9.970;2023-07-29T19:09:17;18.50;96.60
35463;DHT22;21578;47.892;9.970;2023-07-29T19:14:05;18.50;96.60
35463;DHT22;21578;47.892;9.970;2023-07-29T19:18:52;18.40;96.60
35463;DHT22;21578;47.892;9.970;2023-07-29T19:23:39;18.30;96.60
35463;DHT22;21578;47.892;9.970;2023-07-29T19:28:26;18.30;96.60
35463;DHT22;21578;47.892;9.970;2023-07-29T19:33:15;18.30;96.60
35463;DHT22;21578;47.892;9.970;2023-07-29T19:38:02;18.20;96.60
35463;DHT22;21578;47.892;9.970;2023-07-29T19:42:51;18.10;96.60
35463;DHT22;21578;47.892;9.970;2023-07-29T19:47:38;18.10;96.60
35463;DHT22;21578;47.892;9.970;2023-07-29T19:52:26;18.10;96.60
35463;DHT22;21578;47.892;9.970;2023-07-29T19:57:13;18.10;96.60
35463;DHT22;21578;47.892;9.970;2023-07-29T20:02:00;18.00;96.60
35463;DHT22;21578;47.892;9.970;2023-07-29T20:06:47;18.00;96.60
35463;DHT22;21578;47.892;9.970;2023-07-29T20:11:39;18.00;96.60
35463;DHT22;21578;47.892;9.970;2023-07-29T20:16:27;17.90;96.60
35463;DHT22;21578;47.892;9.970;2023-07-29T20:21:14;17.90;96.60
35463;DHT22;21578;47.892;9.970;2023-07-29T20:26:01;17.80;96.60
35463;DHT22;21578;47.892;9.970;2023-07-29T20:30:55;17.80;96.60
35463;DHT22;21578;47.892;9.970;2023-07-29T20:35:42;17.70;96.60
35463;DHT22;21578;47.892;9.970;2023-07-29T20:40:29;17.70;96.60
35463;DHT22;21578;47.892;9.970;2023-07-29T20:45:17;17.70;96.60
35463;DHT22;21578;47.892;9.970;2023-07-29T20:50:06;17.70;96.60
35463;DHT22;21578;47.892;9.970;2023-07-29T20:54:53;17.70;96.60
35463;DHT22;21578;47.892;9.970;2023-07-29T20:59:40;17.60;96.60
35463;DHT22;21578;47.892;9.970;2023-07-29T21:04:27;17.60;96.60
35463;DHT22;21578;47.892;9.970;2023-07-29T21:09:15;17.50;96.60
35463;DHT22;21578;47.892;9.970;2023-07-29T21:14:02;17.50;96.60
35463;DHT22;21578;47.892;9.970;2023-07-29T21:18:49;17.60;96.60
35463;DHT22;21578;47.892;9.970;2023-07-29T21:23:36;17.50;96.60
35463;DHT22;21578;47.892;9.970;2023-07-29T21:28:24;17.50;96.60
35463;DHT22;21578;47.892;9.970;2023-07-29T21:33:11;17.50;96.60
35463;DHT22;21578;47.892;9.970;2023-07-29T21:37:58;17.40;96.60
35463;DHT22;21578;47.892;9.970;2023-07-29T21:42:45;17.50;96.60
35463;DHT22;21578;47.892;9.970;2023-07-29T21:47:33;17.50;96.60
35463;DHT22;21578;47.892;9.970;2023-07-29T21:52:20;17.40;96.60
35463;DHT22;21578;47.892;9.970;2023-07-29T21:57:07;17.40;96.60
35463;DHT22;21578;47.892;9.970;2023-07-29T22:01:54;17.30;96.60
35463;DHT22;21578;47.892;9.970;2023-07-29T22:06:43;17.40;96.60
35463;DHT22;21578;47.892;9.970;2023-07-29T22:11:30;17.40;96.60
35463;DHT22;21578;47.892;9.970;2023-07-29T22:16:18;17.30;96.60
35463;DHT22;21578;47.892;9.970;2023-07-29T22:21:05;17.30;96.60
35463;DHT22;21578;47.892;9.970;2023-07-29T22:26:00;17.30;96.60
35463;DHT22;21578;47.892;9.970;2023-07-29T22:30:48;17.20;96.60
35463;DHT22;21578;47.892;9.970;2023-07-29T22:35:35;17.30;96.60
35463;DHT22;21578;47.892;9.970;2023-07-29T22:40:23;17.20;96.60
35463;DHT22;21578;47.892;9.970;2023-07-29T22:45:11;17.10;96.60
35463;DHT22;21578;47.892;9.970;2023-07-29T22:49:59;17.10;96.60
35463;DHT22;21578;47.892;9.970;2023-07-29T22:54:45;17.10;96.60
35463;DHT22;21578;47.892;9.970;2023-07-29T22:59:35;17.20;96.60
35463;DHT22;21578;47.892;9.970;2023-07-29T23:04:24;17.20;96.60
35463;DHT22;21578;47.892;9.970;2023-07-29T23:09:11;17.10;96.60
35463;DHT22;21578;47.892;9.970;2023-07-29T23:13:58;17.10;96.60
35463;DHT22;21578;47.892;9.970;2023-07-29T23:18:47;17.10;96.60
35463;DHT22;21578;47.892;9.970;2023-07-29T23:23:38;17.10;96.60
35463;DHT22;21578;47.892;9.970;2023-07-29T23:28:25;17.10;96.60
35463;DHT22;21578;47.892;9.970;2023-07-29T23:33:12;17.10;96.60
35463;DHT22;21578;47.892;9.970;2023-07-29T23:38:00;17.10;96.60
35463;DHT22;21578;47.892;9.970;2023-07-29T23:42:48;17.10;96.60
35463;DHT22;21578;47.892;9.970;2023-07-29T23:47:35;17.10;96.60
35463;DHT22;21578;47.892;9.970;2023-07-29T23:52:22;17.00;96.60
35463;DHT22;21578;47.892;9.970;2023-07-29T23:57:09;17.00;96.60
